sensor_id;sensor_type;location;lat;lon;timestamp;temperature;humidity
16327;DHT22;34812;49.846;9.610;2023-01-13T00:00:04;10.20;99.90
16327;DHT22;34812;49.846;9.610;2023-01-13T00:01:09;10.20;99.90
16327;DHT22;34812;49.846;9.610;2023-01-13T00:02:10;10.20;99.90
16327;DHT22;34812;49.846;9.610;2023-01-13T00:03:12;10.10;99.90
16327;DHT22;34812;49.846;9.610;2023-01-13T00:04:12;10.20;99.90
16327;DHT22;34812;49.846;9.610;2023-01-13T00:05:14;10.20;99.90
16327;DHT22;34812;49.846;9.610;2023-01-13T00:06:16;10.30;99.90
16327;DHT22;34812;49.846;9.610;2023-01-13T00:07:18;10.20;99.90
16327;DHT22;34812;49.846;9.610;2023-01-13T00:08:19;10.20;99.90
16327;DHT22;34812;49.846;9.610;2023-01-13T00:09:21;10.20;99.90
16327;DHT22;34812;49.846;9.610;2023-01-13T00:10:21;10.20;99.90
16327;DHT22;34812;49.846;9.610;2023-01-13T00:11:23;10.20;99.90
16327;DHT22;34812;49.846;9.610;2023-01-13T00:12:25;10.20;99.90
16327;DHT22;34812;49.846;9.610;2023-01-13T00:13:28;10.20;99.90
16327;DHT22;34812;49.846;9.610;2023-01-13T00:14:32;10.20;99.90
16327;DHT22;34812;49.846;9.610;2023-01-13T00:15:34;10.20;99.90
16327;DHT22;34812;49.846;9.610;2023-01-13T00:16:36;10.20;99.90
16327;DHT22;34812;49.846;9.610;2023-01-13T00:17:37;10.20;99.90
16327;DHT22;34812;49.846;9.610;2023-01-13T00:18:39;10.20;99.90
16327;DHT22;34812;49.846;9.610;2023-01-13T00:19:40;10.20;99.90
16327;DHT22;34812;49.846;9.610;2023-01-13T00:20:42;10.20;99.90
16327;DHT22;34812;49.846;9.610;2023-01-13T00:21:42;10.30;99.90
16327;DHT22;34812;49.846;9.610;2023-01-13T00:22:44;10.40;99.90
16327;DHT22;34812;49.846;9.610;2023-01-13T00:23:45;10.40;99.90
16327;DHT22;34812;49.846;9.610;2023-01-13T00:24:47;10.50;99.90
16327;DHT22;34812;49.846;9.610;2023-01-13T00:25:48;10.50;99.90
16327;DHT22;34812;49.846;9.610;2023-01-13T00:26:49;10.50;99.90
16327;DHT22;34812;49.846;9.610;2023-01-13T00:27:52;10.50;99.90
16327;DHT22;34812;49.846;9.610;2023-01-13T00:28:57;10.50;99.90
16327;DHT22;34812;49.846;9.610;2023-01-13T00:29:58;10.60;99.90
16327;DHT22;34812;49.846;9.610;2023-01-13T00:31:04;10.60;99.90
16327;DHT22;34812;49.846;9.610;2023-01-13T00:32:05;10.60;99.90
16327;DHT22;34812;49.846;9.610;2023-01-13T00:33:06;10.60;99.90
16327;DHT22;34812;49.846;9.610;2023-01-13T00:34:07;10.60;99.90
16327;DHT22;34812;49.846;9.610;2023-01-13T00:35:09;10.70;99.90
16327;DHT22;34812;49.846;9.610;2023-01-13T00:36:12;10.70;99.90
16327;DHT22;34812;49.846;9.610;2023-01-13T00:37:14;10.60;99.90
16327;DHT22;34812;49.846;9.610;2023-01-13T00:38:14;10.60;99.90
16327;DHT22;34812;49.846;9.610;2023-01-13T00:39:16;10.60;99.90
16327;DHT22;34812;49.846;9.610;2023-01-13T00:40:17;10.60;99.90
16327;DHT22;34812;49.846;9.610;2023-01-13T00:41:20;10.60;99.90
16327;DHT22;34812;49.846;9.610;2023-01-13T00:42:21;10.60;99.90
16327;DHT22;34812;49.846;9.610;2023-01-13T00:43:41;10.60;99.90
16327;DHT22;34812;49.846;9.610;2023-01-13T00:44:43;10.60;99.90
16327;DHT22;34812;49.846;9.610;2023-01-13T00:45:44;10.60;99.90
16327;DHT22;34812;49.846;9.610;2023-01-13T00:46:45;10.60;99.90
16327;DHT22;34812;49.846;9.610;2023-01-13T00:47:47;10.60;99.90
16327;DHT22;34812;49.846;9.610;2023-01-13T00:48:48;10.60;99.90
16327;DHT22;34812;49.846;9.610;2023-01-13T00:49:50;10.60;99.90
16327;DHT22;34812;49.846;9.610;2023-01-13T00:50:55;10.70;99.90
16327;DHT22;34812;49.846;9.610;2023-01-13T00:51:56;10.70;99.90
16327;DHT22;34812;49.846;9.610;2023-01-13T00:52:58;10.60;99.90
16327;DHT22;34812;49.846;9.610;2023-01-13T00:54:00;10.60;99.90
16327;DHT22;34812;49.846;9.610;2023-01-13T00:55:01;10.60;99.90
16327;DHT22;34812;49.846;9.610;2023-01-13T00:56:04;10.70;99.90
16327;DHT22;34812;49.846;9.610;2023-01-13T00:57:05;10.70;99.90
16327;DHT22;34812;49.846;9.610;2023-01-13T00:58:07;10.70;99.90
16327;DHT22;34812;49.846;9.610;2023-01-13T00:59:09;10.70;99.90
16327;DHT22;34812;49.846;9.610;2023-01-13T01:00:13;10.80;99.90
16327;DHT22;34812;49.846;9.610;2023-01-13T01:01:16;10.80;99.90
16327;DHT22;34812;49.846;9.610;2023-01-13T01:02:18;10.80;99.90
16327;DHT22;34812;49.846;9.610;2023-01-13T01:03:19;10.80;99.90
16327;DHT22;34812;49.846;9.610;2023-01-13T01:04:20;10.80;99.90
16327;DHT22;34812;49.846;9.610;2023-01-13T01:05:21;10.90;99.90
16327;DHT22;34812;49.846;9.610;2023-01-13T01:06:24;10.80;99.90
16327;DHT22;34812;49.846;9.610;2023-01-13T01:07:25;10.90;99.90
16327;DHT22;34812;49.846;9.610;2023-01-13T01:08:26;11.00;99.90
16327;DHT22;34812;49.846;9.610;2023-01-13T01:09:27;11.00;99.90
16327;DHT22;34812;49.846;9.610;2023-01-13T01:10:32;11.00;99.90
16327;DHT22;34812;49.846;9.610;2023-01-13T01:11:33;11.00;99.90
16327;DHT22;34812;49.846;9.610;2023-01-13T01:12:34;11.00;99.90
16327;DHT22;34812;49.846;9.610;2023-01-13T01:13:36;11.10;99.90
16327;DHT22;34812;49.846;9.610;2023-01-13T01:14:38;11.00;99.90
16327;DHT22;34812;49.846;9.610;2023-01-13T01:15:40;11.00;99.90
16327;DHT22;34812;49.846;9.610;2023-01-13T01:16:42;11.10;99.90
16327;DHT22;34812;49.846;9.610;2023-01-13T01:17:43;11.10;99.90
16327;DHT22;34812;49.846;9.610;2023-01-13T01:18:46;11.10;99.90
16327;DHT22;34812;49.846;9.610;2023-01-13T01:19:47;11.10;99.90
16327;DHT22;34812;49.846;9.610;2023-01-13T01:20:49;11.10;99.90
16327;DHT22;34812;49.846;9.610;2023-01-13T01:21:50;11.10;99.90
16327;DHT22;34812;49.846;9.610;2023-01-13T01:22:52;11.10;99.90
16327;DHT22;34812;49.846;9.610;2023-01-13T01:23:53;11.10;99.90
16327;DHT22;34812;49.846;9.610;2023-01-13T01:24:55;11.00;99.90
16327;DHT22;34812;49.846;9.610;2023-01-13T01:25:59;11.10;99.90
16327;DHT22;34812;49.846;9.610;2023-01-13T01:27:00;11.00;99.90
16327;DHT22;34812;49.846;9.610;2023-01-13T01:28:02;11.00;99.90
16327;DHT22;34812;49.846;9.610;2023-01-13T01:29:03;11.00;99.90
16327;DHT22;34812;49.846;9.610;2023-01-13T01:30:05;11.00;99.90
16327;DHT22;34812;49.846;9.610;2023-01-13T01:31:09;11.00;99.90
16327;DHT22;34812;49.846;9.610;2023-01-13T01:32:11;11.10;99.90
16327;DHT22;34812;49.846;9.610;2023-01-13T01:33:12;11.10;99.90
16327;DHT22;34812;49.846;9.610;2023-01-13T01:34:14;11.10;99.90
16327;DHT22;34812;49.846;9.610;2023-01-13T01:35:14;11.00;99.90
16327;DHT22;34812;49.846;9.610;2023-01-13T01:36:17;11.00;99.90
16327;DHT22;34812;49.846;9.610;2023-01-13T01:37:18;11.10;99.90
16327;DHT22;34812;49.846;9.610;2023-01-13T01:38:20;11.00;99.90
16327;DHT22;34812;49.846;9.610;2023-01-13T01:39:22;11.00;99.90
16327;DHT22;34812;49.846;9.610;2023-01-13T01:40:25;11.00;99.90
16327;DHT22;34812;49.846;9.610;2023-01-13T01:41:28;11.00;99.90
16327;DHT22;34812;49.846;9.610;2023-01-13T01:42:31;11.10;99.90
16327;DHT22;34812;49.846;9.610;2023-01-13T01:43:52;11.10;99.90
16327;DHT22;34812;49.846;9.610;2023-01-13T01:45:01;11.10;99.90
16327;DHT22;34812;49.846;9.610;2023-01-13T01:46:02;11.10;99.90
16327;DHT22;34812;49.846;9.610;2023-01-13T01:47:05;11.00;99.90
16327;DHT22;34812;49.846;9.610;2023-01-13T01:48:07;11.10;99.90
16327;DHT22;34812;49.846;9.610;2023-01-13T01:49:14;11.10;99.90
16327;DHT22;34812;49.846;9.610;2023-01-13T01:50:17;11.10;99.90
16327;DHT22;34812;49.846;9.610;2023-01-13T01:51:20;11.10;99.90
16327;DHT22;34812;49.846;9.610;2023-01-13T01:52:23;11.10;99.90
16327;DHT22;34812;49.846;9.610;2023-01-13T01:53:28;11.10;99.90
16327;DHT22;34812;49.846;9.610;2023-01-13T01:54:33;11.00;99.90
16327;DHT22;34812;49.846;9.610;2023-01-13T01:55:37;11.00;99.90
16327;DHT22;34812;49.846;9.610;2023-01-13T01:56:40;11.00;99.90
16327;DHT22;34812;49.846;9.610;2023-01-13T01:57:47;11.00;99.90
16327;DHT22;34812;49.846;9.610;2023-01-13T01:58:51;11.00;99.90
16327;DHT22;34812;49.846;9.610;2023-01-13T01:59:54;11.00;99.90
16327;DHT22;34812;49.846;9.610;2023-01-13T02:00:57;11.00;99.90
16327;DHT22;34812;49.846;9.610;2023-01-13T02:01:59;11.00;99.90
16327;DHT22;34812;49.846;9.610;2023-01-13T02:03:02;11.00;99.90
16327;DHT22;34812;49.846;9.610;2023-01-13T02:04:10;11.00;99.90
16327;DHT22;34812;49.846;9.610;2023-01-13T02:05:11;11.00;99.90
16327;DHT22;34812;49.846;9.610;2023-01-13T02:06:13;11.00;99.90
16327;DHT22;34812;49.846;9.610;2023-01-13T02:07:16;10.90;99.90
16327;DHT22;34812;49.846;9.610;2023-01-13T02:08:18;10.90;99.90
16327;DHT22;34812;49.846;9.610;2023-01-13T02:09:20;10.90;99.90
16327;DHT22;34812;49.846;9.610;2023-01-13T02:10:24;10.90;99.90
16327;DHT22;34812;49.846;9.610;2023-01-13T02:11:31;10.90;99.90
16327;DHT22;34812;49.846;9.610;2023-01-13T02:12:52;10.90;99.90
16327;DHT22;34812;49.846;9.610;2023-01-13T02:13:54;10.80;99.90
16327;DHT22;34812;49.846;9.610;2023-01-13T02:14:55;10.80;99.90
16327;DHT22;34812;49.846;9.610;2023-01-13T02:16:02;10.80;99.90
16327;DHT22;34812;49.846;9.610;2023-01-13T02:17:24;10.80;99.90
16327;DHT22;34812;49.846;9.610;2023-01-13T02:18:37;10.80;99.90
16327;DHT22;34812;49.846;9.610;2023-01-13T02:20:19;10.70;99.90
16327;DHT22;34812;49.846;9.610;2023-01-13T02:21:55;10.70;99.90
16327;DHT22;34812;49.846;9.610;2023-01-13T02:23:31;10.60;99.90
16327;DHT22;34812;49.846;9.610;2023-01-13T02:25:10;10.50;99.90
16327;DHT22;34812;49.846;9.610;2023-01-13T02:26:39;10.50;99.90
16327;DHT22;34812;49.846;9.610;2023-01-13T02:27:58;10.50;99.90
16327;DHT22;34812;49.846;9.610;2023-01-13T02:29:11;10.40;99.90
16327;DHT22;34812;49.846;9.610;2023-01-13T02:30:39;10.50;99.90
16327;DHT22;34812;49.846;9.610;2023-01-13T02:32:03;10.40;99.90
16327;DHT22;34812;49.846;9.610;2023-01-13T02:33:16;10.40;99.90
16327;DHT22;34812;49.846;9.610;2023-01-13T02:34:23;10.40;99.90
16327;DHT22;34812;49.846;9.610;2023-01-13T02:35:28;10.30;99.90
16327;DHT22;34812;49.846;9.610;2023-01-13T02:36:38;10.30;99.90
16327;DHT22;34812;49.846;9.610;2023-01-13T02:37:43;10.40;99.90
16327;DHT22;34812;49.846;9.610;2023-01-13T02:38:49;10.40;99.90
16327;DHT22;34812;49.846;9.610;2023-01-13T02:39:57;10.30;99.90
16327;DHT22;34812;49.846;9.610;2023-01-13T02:41:02;10.30;99.90
16327;DHT22;34812;49.846;9.610;2023-01-13T02:42:24;10.40;99.90
16327;DHT22;34812;49.846;9.610;2023-01-13T02:43:46;10.40;99.90
16327;DHT22;34812;49.846;9.610;2023-01-13T02:45:12;10.40;99.90
16327;DHT22;34812;49.846;9.610;2023-01-13T02:46:21;10.40;99.90
16327;DHT22;34812;49.846;9.610;2023-01-13T02:47:24;10.30;99.90
16327;DHT22;34812;49.846;9.610;2023-01-13T02:48:27;10.30;99.90
16327;DHT22;34812;49.846;9.610;2023-01-13T02:49:33;10.30;99.90
16327;DHT22;34812;49.846;9.610;2023-01-13T02:50:39;10.30;99.90
16327;DHT22;34812;49.846;9.610;2023-01-13T02:51:43;10.30;99.90
16327;DHT22;34812;49.846;9.610;2023-01-13T02:52:49;10.30;99.90
16327;DHT22;34812;49.846;9.610;2023-01-13T02:53:55;10.30;99.90
16327;DHT22;34812;49.846;9.610;2023-01-13T02:55:01;10.30;99.90
16327;DHT22;34812;49.846;9.610;2023-01-13T02:56:04;10.40;99.90
16327;DHT22;34812;49.846;9.610;2023-01-13T02:57:07;10.40;99.90
16327;DHT22;34812;49.846;9.610;2023-01-13T02:58:13;10.30;99.90
16327;DHT22;34812;49.846;9.610;2023-01-13T02:59:15;10.30;99.90
16327;DHT22;34812;49.846;9.610;2023-01-13T03:00:18;10.30;99.90
16327;DHT22;34812;49.846;9.610;2023-01-13T03:01:21;10.30;99.90
16327;DHT22;34812;49.846;9.610;2023-01-13T03:02:24;10.40;99.90
16327;DHT22;34812;49.846;9.610;2023-01-13T03:03:25;10.30;99.90
16327;DHT22;34812;49.846;9.610;2023-01-13T03:04:57;10.40;99.90
16327;DHT22;34812;49.846;9.610;2023-01-13T03:06:10;10.40;99.90
16327;DHT22;34812;49.846;9.610;2023-01-13T03:08:50;10.40;99.90
16327;DHT22;34812;49.846;9.610;2023-01-13T03:09:58;10.40;99.90
16327;DHT22;34812;49.846;9.610;2023-01-13T03:11:04;10.30;99.90
16327;DHT22;34812;49.846;9.610;2023-01-13T03:12:14;10.30;99.90
16327;DHT22;34812;49.846;9.610;2023-01-13T03:13:37;10.30;99.90
16327;DHT22;34812;49.846;9.610;2023-01-13T03:14:43;10.30;99.90
16327;DHT22;34812;49.846;9.610;2023-01-13T03:15:55;10.30;99.90
16327;DHT22;34812;49.846;9.610;2023-01-13T03:17:14;10.30;99.90
16327;DHT22;34812;49.846;9.610;2023-01-13T03:18:27;10.30;99.90
16327;DHT22;34812;49.846;9.610;2023-01-13T03:19:35;10.30;99.90
16327;DHT22;34812;49.846;9.610;2023-01-13T03:20:45;10.30;99.90
16327;DHT22;34812;49.846;9.610;2023-01-13T03:21:53;10.20;99.90
16327;DHT22;34812;49.846;9.610;2023-01-13T03:23:01;10.20;99.90
16327;DHT22;34812;49.846;9.610;2023-01-13T03:24:08;10.20;99.90
16327;DHT22;34812;49.846;9.610;2023-01-13T03:25:16;10.20;99.90
16327;DHT22;34812;49.846;9.610;2023-01-13T03:26:23;10.20;99.90
16327;DHT22;34812;49.846;9.610;2023-01-13T03:27:31;10.20;99.90
16327;DHT22;34812;49.846;9.610;2023-01-13T03:28:39;10.10;99.90
16327;DHT22;34812;49.846;9.610;2023-01-13T03:29:45;10.10;99.90
16327;DHT22;34812;49.846;9.610;2023-01-13T03:30:52;10.20;99.90
16327;DHT22;34812;49.846;9.610;2023-01-13T03:31:57;10.20;99.90
16327;DHT22;34812;49.846;9.610;2023-01-13T03:33:03;10.10;99.90
16327;DHT22;34812;49.846;9.610;2023-01-13T03:34:08;10.10;99.90
16327;DHT22;34812;49.846;9.610;2023-01-13T03:35:13;10.10;99.90
16327;DHT22;34812;49.846;9.610;2023-01-13T03:36:18;10.10;99.90
16327;DHT22;34812;49.846;9.610;2023-01-13T03:37:22;10.10;99.90
16327;DHT22;34812;49.846;9.610;2023-01-13T03:38:30;10.10;99.90
16327;DHT22;34812;49.846;9.610;2023-01-13T03:39:33;10.10;99.90
16327;DHT22;34812;49.846;9.610;2023-01-13T03:40:43;10.10;99.90
16327;DHT22;34812;49.846;9.610;2023-01-13T03:41:48;10.10;99.90
16327;DHT22;34812;49.846;9.610;2023-01-13T03:42:54;10.10;99.90
16327;DHT22;34812;49.846;9.610;2023-01-13T03:44:19;10.10;99.90
16327;DHT22;34812;49.846;9.610;2023-01-13T03:45:22;10.10;99.90
16327;DHT22;34812;49.846;9.610;2023-01-13T03:46:28;10.10;99.90
16327;DHT22;34812;49.846;9.610;2023-01-13T03:47:35;10.10;99.90
16327;DHT22;34812;49.846;9.610;2023-01-13T03:48:42;10.00;99.90
16327;DHT22;34812;49.846;9.610;2023-01-13T03:49:50;10.10;99.90
16327;DHT22;34812;49.846;9.610;2023-01-13T03:50:56;10.10;99.90
16327;DHT22;34812;49.846;9.610;2023-01-13T03:52:04;10.10;99.90
16327;DHT22;34812;49.846;9.610;2023-01-13T03:53:10;10.00;99.90
16327;DHT22;34812;49.846;9.610;2023-01-13T03:54:14;10.00;99.90
16327;DHT22;34812;49.846;9.610;2023-01-13T03:55:21;10.00;99.90
16327;DHT22;34812;49.846;9.610;2023-01-13T03:56:25;10.00;99.90
16327;DHT22;34812;49.846;9.610;2023-01-13T03:57:31;10.00;99.90
16327;DHT22;34812;49.846;9.610;2023-01-13T03:58:36;10.00;99.90
16327;DHT22;34812;49.846;9.610;2023-01-13T03:59:42;10.00;99.90
16327;DHT22;34812;49.846;9.610;2023-01-13T04:00:49;10.00;99.90
16327;DHT22;34812;49.846;9.610;2023-01-13T04:02:00;10.10;99.90
16327;DHT22;34812;49.846;9.610;2023-01-13T04:03:06;10.10;99.90
16327;DHT22;34812;49.846;9.610;2023-01-13T04:04:13;10.10;99.90
16327;DHT22;34812;49.846;9.610;2023-01-13T04:05:16;10.10;99.90
16327;DHT22;34812;49.846;9.610;2023-01-13T04:06:24;10.10;99.90
16327;DHT22;34812;49.846;9.610;2023-01-13T04:07:39;10.10;99.90
16327;DHT22;34812;49.846;9.610;2023-01-13T04:08:50;10.10;99.90
16327;DHT22;34812;49.846;9.610;2023-01-13T04:09:55;10.20;99.90
16327;DHT22;34812;49.846;9.610;2023-01-13T04:11:00;10.20;99.90
16327;DHT22;34812;49.846;9.610;2023-01-13T04:12:08;10.20;99.90
16327;DHT22;34812;49.846;9.610;2023-01-13T04:13:13;10.20;99.90
16327;DHT22;34812;49.846;9.610;2023-01-13T04:14:18;10.20;99.90
16327;DHT22;34812;49.846;9.610;2023-01-13T04:15:22;10.30;99.90
16327;DHT22;34812;49.846;9.610;2023-01-13T04:16:23;10.20;99.90
16327;DHT22;34812;49.846;9.610;2023-01-13T04:17:25;10.30;99.90
16327;DHT22;34812;49.846;9.610;2023-01-13T04:18:28;10.30;99.90
16327;DHT22;34812;49.846;9.610;2023-01-13T04:19:32;10.30;99.90
16327;DHT22;34812;49.846;9.610;2023-01-13T04:20:32;10.30;99.90
16327;DHT22;34812;49.846;9.610;2023-01-13T04:21:34;10.30;99.90
16327;DHT22;34812;49.846;9.610;2023-01-13T04:22:35;10.30;99.90
16327;DHT22;34812;49.846;9.610;2023-01-13T04:23:37;10.30;99.90
16327;DHT22;34812;49.846;9.610;2023-01-13T04:24:38;10.40;99.90
16327;DHT22;34812;49.846;9.610;2023-01-13T04:25:40;10.40;99.90
16327;DHT22;34812;49.846;9.610;2023-01-13T04:26:41;10.40;99.90
16327;DHT22;34812;49.846;9.610;2023-01-13T04:27:42;10.30;99.90
16327;DHT22;34812;49.846;9.610;2023-01-13T04:28:44;10.30;99.90
16327;DHT22;34812;49.846;9.610;2023-01-13T04:29:46;10.30;99.90
16327;DHT22;34812;49.846;9.610;2023-01-13T04:30:46;10.30;99.90
16327;DHT22;34812;49.846;9.610;2023-01-13T04:31:48;10.30;99.90
16327;DHT22;34812;49.846;9.610;2023-01-13T04:32:49;10.30;99.90
16327;DHT22;34812;49.846;9.610;2023-01-13T04:33:51;10.20;99.90
16327;DHT22;34812;49.846;9.610;2023-01-13T04:34:53;10.20;99.90
16327;DHT22;34812;49.846;9.610;2023-01-13T04:35:54;10.20;99.90
16327;DHT22;34812;49.846;9.610;2023-01-13T04:36:56;10.10;99.90
16327;DHT22;34812;49.846;9.610;2023-01-13T04:37:59;10.10;99.90
16327;DHT22;34812;49.846;9.610;2023-01-13T04:39:01;10.10;99.90
16327;DHT22;34812;49.846;9.610;2023-01-13T04:40:04;10.10;99.90
16327;DHT22;34812;49.846;9.610;2023-01-13T04:41:05;10.10;99.90
16327;DHT22;34812;49.846;9.610;2023-01-13T04:42:07;10.10;99.90
16327;DHT22;34812;49.846;9.610;2023-01-13T04:43:08;10.10;99.90
16327;DHT22;34812;49.846;9.610;2023-01-13T04:44:09;10.00;99.90
16327;DHT22;34812;49.846;9.610;2023-01-13T04:45:11;10.00;99.90
16327;DHT22;34812;49.846;9.610;2023-01-13T04:46:13;10.00;99.90
16327;DHT22;34812;49.846;9.610;2023-01-13T04:47:15;10.00;99.90
16327;DHT22;34812;49.846;9.610;2023-01-13T04:48:15;10.00;99.90
16327;DHT22;34812;49.846;9.610;2023-01-13T04:49:17;10.00;99.90
16327;DHT22;34812;49.846;9.610;2023-01-13T04:50:19;10.00;99.90
16327;DHT22;34812;49.846;9.610;2023-01-13T04:51:22;10.00;99.90
16327;DHT22;34812;49.846;9.610;2023-01-13T04:52:22;10.00;99.90
16327;DHT22;34812;49.846;9.610;2023-01-13T04:53:24;10.00;99.90
16327;DHT22;34812;49.846;9.610;2023-01-13T04:54:25;10.00;99.90
16327;DHT22;34812;49.846;9.610;2023-01-13T04:55:27;10.00;99.90
16327;DHT22;34812;49.846;9.610;2023-01-13T04:56:27;10.00;99.90
16327;DHT22;34812;49.846;9.610;2023-01-13T04:57:29;10.10;99.90
16327;DHT22;34812;49.846;9.610;2023-01-13T04:58:30;10.10;99.90
16327;DHT22;34812;49.846;9.610;2023-01-13T04:59:32;10.00;99.90
16327;DHT22;34812;49.846;9.610;2023-01-13T05:00:33;10.10;99.90
16327;DHT22;34812;49.846;9.610;2023-01-13T05:01:35;10.10;99.90
16327;DHT22;34812;49.846;9.610;2023-01-13T05:02:36;10.10;99.90
16327;DHT22;34812;49.846;9.610;2023-01-13T05:03:37;10.10;99.90
16327;DHT22;34812;49.846;9.610;2023-01-13T05:04:38;10.10;99.90
16327;DHT22;34812;49.846;9.610;2023-01-13T05:05:41;10.10;99.90
16327;DHT22;34812;49.846;9.610;2023-01-13T05:06:42;10.10;99.90
16327;DHT22;34812;49.846;9.610;2023-01-13T05:07:44;10.10;99.90
16327;DHT22;34812;49.846;9.610;2023-01-13T05:08:45;10.10;99.90
16327;DHT22;34812;49.846;9.610;2023-01-13T05:09:46;10.10;99.90
16327;DHT22;34812;49.846;9.610;2023-01-13T05:10:47;10.10;99.90
16327;DHT22;34812;49.846;9.610;2023-01-13T05:11:48;10.10;99.90
16327;DHT22;34812;49.846;9.610;2023-01-13T05:13:08;10.10;99.90
16327;DHT22;34812;49.846;9.610;2023-01-13T05:14:27;10.10;99.90
16327;DHT22;34812;49.846;9.610;2023-01-13T05:15:45;10.10;99.90
16327;DHT22;34812;49.846;9.610;2023-01-13T05:17:06;10.10;99.90
16327;DHT22;34812;49.846;9.610;2023-01-13T05:18:09;10.10;99.90
16327;DHT22;34812;49.846;9.610;2023-01-13T05:19:10;10.10;99.90
16327;DHT22;34812;49.846;9.610;2023-01-13T05:20:12;10.10;99.90
16327;DHT22;34812;49.846;9.610;2023-01-13T05:21:14;10.10;99.90
16327;DHT22;34812;49.846;9.610;2023-01-13T05:22:30;10.10;99.90
16327;DHT22;34812;49.846;9.610;2023-01-13T05:23:49;10.20;99.90
16327;DHT22;34812;49.846;9.610;2023-01-13T05:25:08;10.10;99.90
16327;DHT22;34812;49.846;9.610;2023-01-13T05:26:23;10.10;99.90
16327;DHT22;34812;49.846;9.610;2023-01-13T05:27:24;10.10;99.90
16327;DHT22;34812;49.846;9.610;2023-01-13T05:28:30;10.10;99.90
16327;DHT22;34812;49.846;9.610;2023-01-13T05:29:32;10.10;99.90
16327;DHT22;34812;49.846;9.610;2023-01-13T05:30:40;10.10;99.90
16327;DHT22;34812;49.846;9.610;2023-01-13T05:31:42;10.10;99.90
16327;DHT22;34812;49.846;9.610;2023-01-13T05:32:43;10.10;99.90
16327;DHT22;34812;49.846;9.610;2023-01-13T05:33:44;10.10;99.90
16327;DHT22;34812;49.846;9.610;2023-01-13T05:34:46;10.10;99.90
16327;DHT22;34812;49.846;9.610;2023-01-13T05:35:47;10.10;99.90
16327;DHT22;34812;49.846;9.610;2023-01-13T05:36:50;10.10;99.90
16327;DHT22;34812;49.846;9.610;2023-01-13T05:37:51;10.10;99.90
16327;DHT22;34812;49.846;9.610;2023-01-13T05:38:54;10.10;99.90
16327;DHT22;34812;49.846;9.610;2023-01-13T05:39:55;10.10;99.90
16327;DHT22;34812;49.846;9.610;2023-01-13T05:41:14;10.10;99.90
16327;DHT22;34812;49.846;9.610;2023-01-13T05:42:33;10.10;99.90
16327;DHT22;34812;49.846;9.610;2023-01-13T05:43:53;10.10;99.90
16327;DHT22;34812;49.846;9.610;2023-01-13T05:44:54;10.20;99.90
16327;DHT22;34812;49.846;9.610;2023-01-13T05:45:57;10.20;99.90
16327;DHT22;34812;49.846;9.610;2023-01-13T05:46:59;10.20;99.90
16327;DHT22;34812;49.846;9.610;2023-01-13T05:47:59;10.20;99.90
16327;DHT22;34812;49.846;9.610;2023-01-13T05:49:01;10.30;99.90
16327;DHT22;34812;49.846;9.610;2023-01-13T05:50:05;10.30;99.90
16327;DHT22;34812;49.846;9.610;2023-01-13T05:51:07;10.30;99.90
16327;DHT22;34812;49.846;9.610;2023-01-13T05:52:11;10.30;99.90
16327;DHT22;34812;49.846;9.610;2023-01-13T05:53:12;10.30;99.90
16327;DHT22;34812;49.846;9.610;2023-01-13T05:54:14;10.30;99.90
16327;DHT22;34812;49.846;9.610;2023-01-13T05:55:14;10.30;99.90
16327;DHT22;34812;49.846;9.610;2023-01-13T05:56:16;10.30;99.90
16327;DHT22;34812;49.846;9.610;2023-01-13T05:57:17;10.30;99.90
16327;DHT22;34812;49.846;9.610;2023-01-13T05:58:20;10.30;99.90
16327;DHT22;34812;49.846;9.610;2023-01-13T05:59:22;10.30;99.90
16327;DHT22;34812;49.846;9.610;2023-01-13T06:00:23;10.30;99.90
16327;DHT22;34812;49.846;9.610;2023-01-13T06:01:25;10.30;99.90
16327;DHT22;34812;49.846;9.610;2023-01-13T06:02:26;10.30;99.90
16327;DHT22;34812;49.846;9.610;2023-01-13T06:03:27;10.40;99.90
16327;DHT22;34812;49.846;9.610;2023-01-13T06:04:29;10.40;99.90
16327;DHT22;34812;49.846;9.610;2023-01-13T06:05:30;10.40;99.90
16327;DHT22;34812;49.846;9.610;2023-01-13T06:06:32;10.40;99.90
16327;DHT22;34812;49.846;9.610;2023-01-13T06:07:34;10.40;99.90
16327;DHT22;34812;49.846;9.610;2023-01-13T06:08:36;10.40;99.90
16327;DHT22;34812;49.846;9.610;2023-01-13T06:09:37;10.50;99.90
16327;DHT22;34812;49.846;9.610;2023-01-13T06:10:38;10.50;99.90
16327;DHT22;34812;49.846;9.610;2023-01-13T06:11:40;10.60;99.90
16327;DHT22;34812;49.846;9.610;2023-01-13T06:12:40;10.60;99.90
16327;DHT22;34812;49.846;9.610;2023-01-13T06:13:42;10.60;99.90
16327;DHT22;34812;49.846;9.610;2023-01-13T06:14:43;10.60;99.90
16327;DHT22;34812;49.846;9.610;2023-01-13T06:15:44;10.60;99.90
16327;DHT22;34812;49.846;9.610;2023-01-13T06:16:46;10.60;99.90
16327;DHT22;34812;49.846;9.610;2023-01-13T06:17:47;10.70;99.90
16327;DHT22;34812;49.846;9.610;2023-01-13T06:18:48;10.60;99.90
16327;DHT22;34812;49.846;9.610;2023-01-13T06:19:49;10.60;99.90
16327;DHT22;34812;49.846;9.610;2023-01-13T06:20:51;10.60;99.90
16327;DHT22;34812;49.846;9.610;2023-01-13T06:21:52;10.60;99.90
16327;DHT22;34812;49.846;9.610;2023-01-13T06:22:58;10.60;99.90
16327;DHT22;34812;49.846;9.610;2023-01-13T06:23:58;10.60;99.90
16327;DHT22;34812;49.846;9.610;2023-01-13T06:25:00;10.60;99.90
16327;DHT22;34812;49.846;9.610;2023-01-13T06:26:06;10.50;99.90
16327;DHT22;34812;49.846;9.610;2023-01-13T06:27:08;10.50;99.90
16327;DHT22;34812;49.846;9.610;2023-01-13T06:28:09;10.50;99.90
16327;DHT22;34812;49.846;9.610;2023-01-13T06:29:11;10.50;99.90
16327;DHT22;34812;49.846;9.610;2023-01-13T06:30:14;10.50;99.90
16327;DHT22;34812;49.846;9.610;2023-01-13T06:31:17;10.40;99.90
16327;DHT22;34812;49.846;9.610;2023-01-13T06:32:19;10.40;99.90
16327;DHT22;34812;49.846;9.610;2023-01-13T06:33:26;10.40;99.90
16327;DHT22;34812;49.846;9.610;2023-01-13T06:34:28;10.30;99.90
16327;DHT22;34812;49.846;9.610;2023-01-13T06:35:32;10.20;99.90
16327;DHT22;34812;49.846;9.610;2023-01-13T06:36:36;10.20;99.90
16327;DHT22;34812;49.846;9.610;2023-01-13T06:37:39;10.20;99.90
16327;DHT22;34812;49.846;9.610;2023-01-13T06:38:46;10.20;99.90
16327;DHT22;34812;49.846;9.610;2023-01-13T06:39:48;10.10;99.90
16327;DHT22;34812;49.846;9.610;2023-01-13T06:40:49;10.10;99.90
16327;DHT22;34812;49.846;9.610;2023-01-13T06:41:52;10.00;99.90
16327;DHT22;34812;49.846;9.610;2023-01-13T06:43:12;9.90;99.90
16327;DHT22;34812;49.846;9.610;2023-01-13T06:44:16;9.90;99.90
16327;DHT22;34812;49.846;9.610;2023-01-13T06:45:18;9.80;99.90
16327;DHT22;34812;49.846;9.610;2023-01-13T06:46:19;9.80;99.90
16327;DHT22;34812;49.846;9.610;2023-01-13T06:47:21;9.80;99.90
16327;DHT22;34812;49.846;9.610;2023-01-13T06:48:24;9.70;99.90
16327;DHT22;34812;49.846;9.610;2023-01-13T06:49:26;9.70;99.90
16327;DHT22;34812;49.846;9.610;2023-01-13T06:50:27;9.70;99.90